Aérodrome :
LOGIN :

S'inscrire | Disclaimer

   EN    FR    IT 

 










Légende :    VFR   VFR Marginal   IFR   IFR Intensif   IFR Très Intensif
Visi : 
Plafond : 
>= 8 km
>= 3000ft
5 à 8 km
1000 à 3000 ft
1500m à 5 km
500 à 1000 ft
800 à 1500m
200 à 500 ft
< 800m
< 200 ft
Symboles :   Orages  Brouillard  Fortes neiges  Fortes précipitations  Vent > 20 kt
SIGMETs :   Divers  Orages  Givrage  Turbulence  Onde Orograph.  Cendres Volcan.







- Altitude de l'aérodrome : 12 ft
- Code IATA : BCN


LEBL - Barcelone

DERNIER METAR :
  • 122230Z 05009KT 9000 FEW008 BKN025 18/16 Q1020 NOSIG

METARs EXPIRÉS :
  • 122200Z 05010KT 9000 FEW008 BKN025 18/16 Q1020 NOSIG
  • 122130Z 04011KT 8000 FEW007 BKN025 18/16 Q1020 NOSIG
  • 122100Z 04009KT 8000 FEW012 BKN027 18/17 Q1020 NOSIG
  • 122030Z 05012KT 8000 FEW004 SCT027 18/17 Q1020 NOSIG
  • 122000Z 06012KT 8000 FEW006 SCT027 18/17 Q1020 NOSIG

TAF TAF LEBL
Valide du 12 à 18h jusqu'au 13 à 18h UTC


121700Z 1218/1318 06010KT 9999 FEW012 TX22/1312Z TN14/1306Z
BECMG 1221/1223 35007KT
BECMG 1309/1311 05010KT
TEMPO 1310/1315 05014G24KT
Pas de NOTAMs connus pour ce terrain.



MET'MAP, la Météo Aéronautique d'un coup d'oeil ! - Copyright ORBIFLY Décembre 2007 - Disclaimer

ORBIFLY MET'MAP TEAM :

Programmation & Développement : Alexandra Zaïnal
Conception & Développement : Baudouin d'Aumeries
Co-Programmation & Développement : Marc-Olivier Méhu
Soutien technique & logistique : Manuel Goepfert

Contact : metmap@orbifly.com




SOURCES & CREDITS :

   NOAA